createdAt,value
2022-08-10T00:00:44.072Z,92.30
2022-08-10T00:03:10.975Z,92.20
2022-08-10T00:05:43.679Z,92.20
2022-08-10T00:08:23.746Z,92.10
2022-08-10T00:10:55.858Z,92.00
2022-08-10T00:13:24.378Z,92.00
2022-08-10T00:15:54.918Z,92.00
2022-08-10T00:18:34.678Z,92.10
2022-08-10T00:21:08.537Z,92.00
2022-08-10T00:23:36.553Z,92.00
2022-08-10T00:26:04.601Z,91.90
2022-08-10T00:28:31.903Z,91.90
2022-08-10T00:30:58.877Z,91.90
2022-08-10T00:33:26.026Z,91.90
2022-08-10T00:35:52.820Z,92.00
2022-08-10T00:38:19.593Z,92.00
2022-08-10T00:40:46.659Z,92.00
2022-08-10T00:43:13.788Z,92.10
2022-08-10T00:45:40.610Z,92.10
2022-08-10T00:48:07.357Z,92.10
2022-08-10T00:50:34.442Z,92.20
2022-08-10T00:53:01.576Z,92.20
2022-08-10T00:55:28.895Z,92.20
2022-08-10T00:57:56.382Z,92.20
2022-08-10T01:00:24.382Z,92.20
2022-08-10T01:02:51.406Z,92.20
2022-08-10T01:05:23.521Z,92.20
2022-08-10T01:08:25.855Z,92.30
2022-08-10T01:12:39.042Z,92.30
2022-08-10T01:14:43.707Z,92.30
2022-08-10T01:17:50.111Z,92.30
2022-08-10T01:20:33.231Z,92.40
2022-08-10T01:23:30.335Z,92.40
2022-08-10T01:26:31.202Z,92.60
2022-08-10T01:29:38.436Z,92.60
2022-08-10T01:32:07.257Z,92.60
2022-08-10T01:34:54.200Z,92.60
2022-08-10T01:37:29.905Z,92.60
2022-08-10T01:39:59.797Z,92.70
2022-08-10T01:42:29.472Z,92.70
2022-08-10T01:45:00.769Z,92.70
2022-08-10T01:47:51.770Z,92.70
2022-08-10T01:50:29.518Z,92.80
2022-08-10T01:53:02.574Z,92.90
2022-08-10T01:55:34.269Z,93.00
2022-08-10T01:58:04.345Z,93.00
2022-08-10T02:00:35.191Z,93.10
2022-08-10T02:03:04.683Z,93.10
2022-08-10T02:05:32.930Z,93.10
2022-08-10T02:08:02.930Z,93.20
2022-08-10T02:10:31.182Z,93.30
2022-08-10T02:12:59.397Z,93.40
2022-08-10T02:15:31.620Z,93.40
2022-08-10T02:18:02.907Z,93.50
2022-08-10T02:20:37.856Z,93.50
2022-08-10T02:23:09.370Z,93.60
2022-08-10T02:25:40.960Z,93.60
2022-08-10T02:28:11.984Z,93.50
2022-08-10T02:30:57.735Z,93.60
2022-08-10T02:33:27.722Z,93.70
2022-08-10T02:35:56.134Z,93.80
2022-08-10T02:38:59.150Z,93.80
2022-08-10T02:42:18.826Z,93.90
2022-08-10T02:45:19.061Z,93.90
2022-08-10T02:47:51.105Z,94.00
2022-08-10T02:50:40.449Z,94.10
2022-08-10T02:53:54.755Z,94.20
2022-08-10T02:56:10.448Z,94.30
2022-08-10T02:58:50.913Z,94.30
2022-08-10T03:01:23.252Z,94.40
2022-08-10T03:03:59.279Z,94.40
2022-08-10T03:06:34.792Z,94.50
2022-08-10T03:09:06.360Z,94.50
2022-08-10T03:12:36.790Z,94.60
2022-08-10T03:14:26.189Z,94.80
2022-08-10T03:16:55.486Z,94.80
2022-08-10T03:20:04.625Z,94.80
2022-08-10T03:22:12.414Z,94.90
2022-08-10T03:24:41.461Z,94.90
2022-08-10T03:27:09.093Z,95.00
2022-08-10T03:30:23.254Z,95.00
2022-08-10T03:32:25.539Z,95.10
2022-08-10T03:34:55.001Z,95.20
2022-08-10T03:37:21.831Z,95.40
2022-08-10T03:39:51.168Z,95.40
2022-08-10T03:42:20.215Z,95.30
2022-08-10T03:44:50.540Z,95.40
2022-08-10T03:47:20.113Z,95.50
2022-08-10T03:49:51.229Z,95.50
2022-08-10T03:52:19.296Z,95.50
2022-08-10T03:54:46.862Z,95.50
2022-08-10T03:57:14.235Z,95.60
2022-08-10T03:59:41.093Z,95.60
2022-08-10T04:02:43.755Z,95.70
2022-08-10T04:04:55.977Z,95.80
2022-08-10T04:07:22.857Z,95.80
2022-08-10T04:09:54.590Z,95.90
2022-08-10T04:12:24.455Z,96.00
2022-08-10T04:14:53.211Z,96.00
2022-08-10T04:18:04.161Z,96.10
2022-08-10T04:20:17.544Z,96.20
2022-08-10T04:22:46.879Z,96.20
2022-08-10T04:25:15.993Z,96.30
2022-08-10T04:27:43.569Z,96.40
2022-08-10T04:30:11.012Z,96.40
2022-08-10T04:32:38.646Z,96.50
2022-08-10T04:35:10.874Z,96.60
2022-08-10T04:37:47.169Z,96.60
2022-08-10T04:40:25.150Z,96.70
2022-08-10T04:43:09.024Z,96.80
2022-08-10T04:45:48.715Z,96.80
2022-08-10T04:48:42.084Z,96.90
2022-08-10T04:51:07.864Z,96.90
2022-08-10T04:54:05.317Z,97.00
2022-08-10T04:56:31.485Z,97.00
2022-08-10T04:58:59.939Z,97.00
2022-08-10T05:01:26.664Z,97.10
2022-08-10T05:04:34.067Z,97.10
2022-08-10T05:06:40.397Z,97.10
2022-08-10T05:09:07.156Z,97.20
2022-08-10T05:11:37.081Z,97.60
2022-08-10T05:14:03.909Z,97.40
2022-08-10T05:16:32.373Z,97.40
2022-08-10T05:19:01.857Z,97.50
2022-08-10T05:21:52.153Z,97.50
2022-08-10T05:24:15.459Z,97.60
2022-08-10T05:26:57.230Z,97.60
2022-08-10T05:29:29.273Z,97.60
2022-08-10T05:31:56.468Z,97.60
2022-08-10T05:34:28.578Z,97.70
2022-08-10T05:36:55.943Z,97.70
2022-08-10T05:39:30.233Z,97.70
2022-08-10T05:42:01.692Z,97.70
2022-08-10T05:44:31.974Z,97.70
2022-08-10T05:46:58.819Z,97.70
2022-08-10T05:49:25.662Z,97.70
2022-08-10T05:51:52.929Z,97.70
2022-08-10T05:54:25.118Z,97.70
2022-08-10T05:56:57.159Z,97.70
2022-08-10T06:00:32.837Z,97.60
2022-08-10T06:02:38.556Z,97.60
2022-08-10T06:05:14.647Z,97.50
2022-08-10T06:08:15.958Z,97.50
2022-08-10T06:12:23.949Z,97.40
2022-08-10T06:14:12.890Z,97.30
2022-08-10T06:16:42.997Z,97.30
2022-08-10T06:19:14.618Z,97.30
2022-08-10T06:21:54.999Z,97.20
2022-08-10T06:24:34.175Z,97.20
2022-08-10T06:27:00.997Z,97.20
2022-08-10T06:29:31.032Z,97.20
2022-08-10T06:31:59.782Z,97.10
2022-08-10T06:34:31.993Z,97.00
2022-08-10T06:37:02.177Z,97.00
2022-08-10T06:39:37.031Z,96.90
2022-08-10T06:42:36.191Z,96.90
2022-08-10T06:45:22.434Z,96.90
2022-08-10T06:47:51.346Z,96.70
2022-08-10T06:50:45.433Z,96.60
2022-08-10T06:53:19.475Z,96.50
2022-08-10T06:55:57.260Z,96.40
2022-08-10T06:58:29.085Z,96.20
2022-08-10T07:00:56.926Z,96.10
2022-08-10T07:03:30.659Z,96.00
2022-08-10T07:05:59.414Z,95.90
2022-08-10T07:08:31.505Z,95.60
2022-08-10T07:10:59.432Z,95.50
2022-08-10T07:14:16.733Z,95.90
2022-08-10T07:16:17.744Z,95.60
2022-08-10T07:18:47.308Z,95.30
2022-08-10T07:21:15.061Z,95.00
2022-08-10T07:23:59.723Z,94.90
2022-08-10T07:26:30.304Z,94.70
2022-08-10T07:28:58.147Z,94.50
2022-08-10T07:31:34.851Z,94.50
2022-08-10T07:34:28.735Z,94.40
2022-08-10T07:37:01.372Z,94.40
2022-08-10T07:40:02.579Z,94.30
2022-08-10T07:42:25.172Z,94.30
2022-08-10T07:44:52.249Z,94.10
2022-08-10T07:47:52.643Z,94.10
2022-08-10T07:50:13.197Z,94.00
2022-08-10T07:52:42.538Z,93.70
2022-08-10T07:55:14.358Z,93.50
2022-08-10T07:57:44.579Z,93.30
2022-08-10T08:00:12.688Z,93.20
2022-08-10T08:02:49.734Z,93.00
2022-08-10T08:05:27.622Z,93.00
2022-08-10T08:08:07.663Z,93.00
2022-08-10T08:10:35.409Z,92.80
2022-08-10T08:13:05.679Z,92.60
2022-08-10T08:16:18.438Z,92.40
2022-08-10T08:18:25.265Z,92.20
2022-08-10T08:20:52.996Z,92.00
2022-08-10T08:24:07.658Z,91.70
2022-08-10T08:26:11.557Z,91.30
2022-08-10T08:28:45.648Z,91.00
2022-08-10T08:31:15.426Z,90.70
2022-08-10T08:33:45.674Z,90.50
2022-08-10T08:36:18.633Z,90.40
2022-08-10T08:38:47.340Z,90.00
2022-08-10T08:41:33.921Z,89.80
2022-08-10T08:44:24.006Z,89.00
2022-08-10T08:48:03.508Z,88.70
2022-08-10T08:50:34.942Z,88.30
2022-08-10T08:54:03.423Z,88.70
2022-08-10T08:56:35.084Z,87.20
2022-08-10T08:59:31.422Z,86.30
2022-08-10T09:02:06.501Z,86.70
2022-08-10T09:04:42.752Z,86.70
2022-08-10T09:08:00.308Z,85.70
2022-08-10T09:10:58.495Z,85.50
2022-08-10T09:13:46.853Z,84.40
2022-08-10T09:16:42.465Z,84.50
2022-08-10T09:19:42.595Z,83.30
2022-08-10T09:22:40.039Z,83.70
2022-08-10T09:25:21.626Z,82.90
2022-08-10T09:27:59.750Z,82.40
2022-08-10T09:31:18.818Z,81.10
2022-08-10T09:36:23.503Z,80.10
2022-08-10T09:37:03.111Z,78.60
2022-08-10T09:40:06.754Z,76.80
2022-08-10T09:43:25.166Z,75.30
2022-08-10T09:46:27.574Z,76.40
2022-08-10T09:49:52.900Z,74.50
2022-08-10T09:52:32.675Z,74.00
2022-08-10T09:56:18.181Z,73.80
2022-08-10T09:58:30.153Z,73.40
2022-08-10T10:01:52.888Z,73.70
2022-08-10T10:04:14.650Z,71.90
2022-08-10T10:06:56.599Z,71.80
2022-08-10T10:09:48.164Z,69.80
2022-08-10T10:12:27.136Z,68.70
2022-08-10T10:15:25.226Z,68.50
2022-08-10T10:18:24.689Z,68.20
2022-08-10T10:21:03.557Z,67.30
2022-08-10T10:23:41.005Z,67.50
2022-08-10T10:26:21.687Z,67.30
2022-08-10T10:29:55.827Z,66.40
2022-08-10T10:32:22.017Z,65.90
2022-08-10T10:34:56.537Z,66.60
2022-08-10T10:38:00.256Z,65.80
2022-08-10T10:40:13.482Z,64.80
2022-08-10T10:42:59.922Z,63.50
2022-08-10T10:45:55.809Z,63.00
2022-08-10T10:48:32.982Z,61.30
2022-08-10T10:51:12.932Z,60.50
2022-08-10T10:53:59.937Z,60.80
2022-08-10T10:57:04.071Z,59.70
2022-08-10T10:59:55.539Z,59.00
2022-08-10T11:03:03.099Z,59.60
2022-08-10T11:06:09.666Z,59.00
2022-08-10T11:08:43.517Z,57.90
2022-08-10T11:11:25.307Z,58.50
2022-08-10T11:14:27.038Z,57.50
2022-08-10T11:17:19.750Z,57.30
2022-08-10T11:20:02.711Z,57.20
2022-08-10T11:22:57.744Z,56.60
2022-08-10T11:25:28.811Z,57.00
2022-08-10T11:28:14.650Z,56.00
2022-08-10T11:31:03.561Z,55.70
2022-08-10T11:34:46.374Z,56.00
2022-08-10T11:37:08.565Z,56.60
2022-08-10T11:39:55.900Z,55.90
2022-08-10T11:42:36.430Z,58.00
2022-08-10T11:45:18.064Z,56.60
2022-08-10T11:48:02.122Z,56.10
2022-08-10T11:50:43.486Z,53.80
2022-08-10T11:53:26.441Z,54.80
2022-08-10T11:56:09.594Z,55.90
2022-08-10T11:59:00.815Z,55.70
2022-08-10T12:01:34.923Z,55.90
2022-08-10T12:04:11.868Z,55.20
2022-08-10T12:06:55.216Z,54.50
2022-08-10T12:10:09.464Z,54.60
2022-08-10T12:12:12.954Z,54.60
2022-08-10T12:15:08.933Z,54.80
2022-08-10T12:17:45.856Z,54.50
2022-08-10T12:20:37.444Z,54.90
2022-08-10T12:23:22.266Z,54.20
2022-08-10T12:26:17.318Z,54.70
2022-08-10T12:29:14.516Z,55.30
2022-08-10T12:31:51.498Z,54.20
2022-08-10T12:34:55.318Z,54.00
2022-08-10T12:37:33.338Z,54.30
2022-08-10T12:44:06.299Z,52.60
2022-08-10T12:46:32.703Z,53.00
2022-08-10T12:49:28.637Z,51.90
2022-08-10T12:52:11.419Z,51.70
2022-08-10T12:54:39.125Z,52.00
2022-08-10T12:57:16.168Z,53.00
2022-08-10T12:59:48.377Z,52.80
2022-08-10T13:02:37.848Z,53.80
2022-08-10T13:05:08.723Z,52.00
2022-08-10T13:08:24.934Z,52.10
2022-08-10T13:10:25.645Z,53.30
2022-08-10T13:12:56.824Z,52.70
2022-08-10T13:15:48.862Z,52.80
2022-08-10T13:18:19.687Z,51.20
2022-08-10T13:20:52.181Z,52.30
2022-08-10T13:23:24.986Z,52.00
2022-08-10T13:25:54.994Z,52.30
2022-08-10T13:28:36.929Z,53.00
2022-08-10T13:31:16.810Z,52.10
2022-08-10T13:34:39.394Z,52.40
2022-08-10T13:37:09.238Z,51.00
2022-08-10T13:39:59.029Z,51.10
2022-08-10T13:42:37.063Z,51.00
2022-08-10T13:45:14.592Z,50.50
2022-08-10T13:47:48.566Z,50.40
2022-08-10T13:50:33.461Z,50.70
2022-08-10T13:53:14.012Z,50.50
2022-08-10T13:55:54.439Z,51.70
2022-08-10T13:58:29.299Z,51.50
2022-08-10T14:00:58.009Z,51.10
2022-08-10T14:03:28.681Z,52.10
2022-08-10T14:05:58.540Z,50.40
2022-08-10T14:08:31.240Z,49.00
2022-08-10T14:11:12.728Z,48.70
2022-08-10T14:13:50.758Z,48.60
2022-08-10T14:16:18.948Z,48.20
2022-08-10T14:18:49.455Z,49.20
2022-08-10T14:21:16.655Z,48.90
2022-08-10T14:23:52.260Z,50.00
2022-08-10T14:26:24.591Z,49.10
2022-08-10T14:28:58.516Z,50.60
2022-08-10T14:31:33.720Z,50.60
2022-08-10T14:34:03.759Z,48.50
2022-08-10T14:36:53.404Z,48.00
2022-08-10T14:39:27.828Z,48.60
2022-08-10T14:42:02.546Z,49.00
2022-08-10T14:44:53.447Z,48.10
2022-08-10T14:47:54.057Z,47.70
2022-08-10T14:50:32.752Z,48.60
2022-08-10T14:53:09.499Z,47.80
2022-08-10T14:55:58.683Z,49.00
2022-08-10T14:58:39.016Z,47.70
2022-08-10T15:02:01.514Z,48.90
2022-08-10T15:04:23.482Z,47.40
2022-08-10T15:07:00.080Z,47.50
2022-08-10T15:09:59.240Z,49.00
2022-08-10T15:12:26.315Z,47.80
2022-08-10T15:14:58.471Z,47.40
2022-08-10T15:17:35.237Z,48.10
2022-08-10T15:20:15.310Z,47.70
2022-08-10T15:22:49.792Z,46.80
2022-08-10T15:25:20.207Z,47.20
2022-08-10T15:28:06.130Z,46.60
2022-08-10T15:30:56.443Z,46.10
2022-08-10T15:34:02.677Z,46.60
2022-08-10T15:37:02.321Z,46.50
2022-08-10T15:40:25.522Z,46.10
2022-08-10T15:42:33.479Z,45.00
2022-08-10T15:45:03.702Z,46.00
2022-08-10T15:47:45.286Z,47.40
2022-08-10T15:50:49.094Z,46.90
2022-08-10T15:53:23.046Z,45.60
2022-08-10T15:55:58.864Z,45.50
2022-08-10T15:58:40.085Z,45.60
2022-08-10T16:02:14.715Z,45.60
2022-08-10T16:04:50.582Z,44.80
2022-08-10T16:07:23.511Z,45.10
2022-08-10T16:10:25.219Z,44.70
2022-08-10T16:13:50.222Z,44.20
2022-08-10T16:16:01.759Z,45.10
2022-08-10T16:18:37.690Z,45.40
2022-08-10T16:21:13.724Z,46.80
2022-08-10T16:24:14.705Z,46.50
2022-08-10T16:26:46.354Z,47.00
2022-08-10T16:29:25.924Z,47.00
2022-08-10T16:31:54.048Z,46.30
2022-08-10T16:34:22.225Z,48.20
2022-08-10T16:37:18.992Z,47.70
2022-08-10T16:40:01.920Z,47.20
2022-08-10T16:42:45.120Z,47.00
2022-08-10T16:45:16.133Z,47.10
2022-08-10T16:47:51.901Z,46.90
2022-08-10T16:50:29.725Z,48.20
2022-08-10T16:53:00.381Z,47.50
2022-08-10T16:55:48.211Z,47.90
2022-08-10T16:58:21.914Z,47.80
2022-08-10T17:00:50.158Z,47.90
2022-08-10T17:03:22.805Z,48.60
2022-08-10T17:06:11.085Z,48.20
2022-08-10T17:08:48.256Z,48.20
2022-08-10T17:11:17.335Z,48.20
2022-08-10T17:13:44.997Z,48.80
2022-08-10T17:16:13.777Z,48.80
2022-08-10T17:18:45.162Z,49.00
2022-08-10T17:21:21.069Z,48.70
2022-08-10T17:23:51.504Z,48.70
2022-08-10T17:26:29.175Z,49.30
2022-08-10T17:29:57.284Z,49.00
2022-08-10T17:32:43.946Z,48.90
2022-08-10T17:35:13.977Z,48.90
2022-08-10T17:37:55.098Z,49.40
2022-08-10T17:40:24.370Z,50.00
2022-08-10T17:42:53.220Z,49.60
2022-08-10T17:45:48.068Z,49.80
2022-08-10T17:48:18.847Z,50.00
2022-08-10T17:50:50.291Z,50.10
2022-08-10T17:53:21.327Z,49.80
2022-08-10T17:55:53.276Z,50.00
2022-08-10T17:58:21.736Z,49.90
2022-08-10T18:00:56.330Z,50.20
2022-08-10T18:03:33.834Z,50.50
2022-08-10T18:06:04.000Z,51.00
2022-08-10T18:09:06.403Z,51.00
2022-08-10T18:11:39.923Z,51.70
2022-08-10T18:14:08.260Z,51.40
2022-08-10T18:16:35.633Z,51.60
2022-08-10T18:19:11.636Z,50.90
2022-08-10T18:21:40.118Z,50.90
2022-08-10T18:24:16.322Z,50.70
2022-08-10T18:26:45.612Z,50.10
2022-08-10T18:29:24.727Z,49.80
2022-08-10T18:31:59.960Z,49.50
2022-08-10T18:34:30.098Z,49.50
2022-08-10T18:36:57.591Z,50.40
2022-08-10T18:39:28.285Z,50.00
2022-08-10T18:42:13.828Z,50.60
2022-08-10T18:44:45.580Z,50.40
2022-08-10T18:47:19.660Z,50.60
2022-08-10T18:50:06.125Z,50.80
2022-08-10T18:52:34.901Z,50.90
2022-08-10T18:55:23.028Z,51.90
2022-08-10T18:58:00.677Z,53.00
2022-08-10T19:00:56.039Z,54.30
2022-08-10T19:03:53.612Z,55.60
2022-08-10T19:06:47.825Z,56.80
2022-08-10T19:09:45.865Z,57.40
2022-08-10T19:12:32.125Z,58.80
2022-08-10T19:15:14.830Z,58.90
2022-08-10T19:18:09.924Z,59.50
2022-08-10T19:20:55.513Z,60.80
2022-08-10T19:23:51.455Z,61.30
2022-08-10T19:26:46.072Z,62.70
2022-08-10T19:30:09.161Z,62.40
2022-08-10T19:32:51.263Z,63.40
2022-08-10T19:36:04.266Z,63.90
2022-08-10T19:38:50.499Z,64.90
2022-08-10T19:41:32.315Z,64.90
2022-08-10T19:44:21.083Z,65.10
2022-08-10T19:47:11.814Z,65.70
2022-08-10T19:49:52.579Z,66.60
2022-08-10T19:53:04.432Z,66.90
2022-08-10T19:56:24.345Z,67.40
2022-08-10T20:00:16.311Z,67.50
2022-08-10T20:02:17.353Z,68.30
2022-08-10T20:05:27.300Z,68.40
2022-08-10T20:08:09.740Z,69.60
2022-08-10T20:10:54.304Z,70.50
2022-08-10T20:13:25.600Z,70.70
2022-08-10T20:16:07.095Z,71.10
2022-08-10T20:18:41.876Z,71.70
2022-08-10T20:21:12.922Z,71.90
2022-08-10T20:23:53.863Z,72.30
2022-08-10T20:26:29.393Z,72.90
2022-08-10T20:29:57.448Z,72.90
2022-08-10T20:32:17.547Z,73.40
2022-08-10T20:34:52.981Z,74.00
2022-08-10T20:37:46.880Z,74.40
2022-08-10T20:40:22.576Z,75.10
2022-08-10T20:43:26.767Z,76.30
2022-08-10T20:46:08.571Z,76.10
2022-08-10T20:48:48.523Z,76.10
2022-08-10T20:51:22.981Z,76.60
2022-08-10T20:53:57.210Z,77.20
2022-08-10T20:56:48.781Z,77.90
2022-08-10T20:59:28.867Z,78.90
2022-08-10T21:02:28.033Z,79.10
2022-08-10T21:05:06.912Z,79.70
2022-08-10T21:08:08.744Z,80.10
2022-08-10T21:11:08.205Z,80.70
2022-08-10T21:13:58.117Z,81.50
2022-08-10T21:16:57.854Z,82.20
2022-08-10T21:20:09.102Z,82.90
2022-08-10T21:22:45.998Z,83.50
2022-08-10T21:25:26.106Z,84.10
2022-08-10T21:28:03.417Z,84.90
2022-08-10T21:30:53.286Z,85.50
2022-08-10T21:33:49.203Z,86.00
2022-08-10T21:36:35.111Z,87.70
2022-08-10T21:39:11.209Z,87.40
2022-08-10T21:41:59.255Z,87.90
2022-08-10T21:45:22.055Z,88.40
2022-08-10T21:48:43.152Z,89.20
2022-08-10T21:52:01.212Z,89.80
2022-08-10T21:55:02.243Z,90.10
2022-08-10T21:57:58.997Z,90.40
2022-08-10T22:00:44.927Z,90.60
2022-08-10T22:03:40.123Z,90.80
2022-08-10T22:06:28.036Z,91.00
2022-08-10T22:09:23.226Z,91.20
2022-08-10T22:12:31.299Z,91.50
2022-08-10T22:18:58.887Z,91.80
2022-08-10T22:22:06.136Z,92.00
2022-08-10T22:25:18.945Z,92.20
2022-08-10T22:28:17.449Z,92.30
2022-08-10T22:31:28.146Z,91.60
2022-08-10T22:34:41.260Z,92.50
2022-08-10T22:37:45.398Z,92.60
2022-08-10T22:40:41.171Z,92.70
2022-08-10T22:43:36.205Z,92.70
2022-08-10T22:46:25.511Z,92.80
2022-08-10T22:49:04.501Z,92.80
2022-08-10T22:51:47.616Z,92.90
2022-08-10T22:55:06.923Z,93.00
2022-08-10T22:57:52.456Z,93.00
2022-08-10T23:00:31.413Z,93.00
2022-08-10T23:03:12.401Z,93.10
2022-08-10T23:05:45.441Z,93.10
2022-08-10T23:08:29.748Z,93.10
2022-08-10T23:11:04.072Z,93.20
2022-08-10T23:13:41.846Z,93.20
2022-08-10T23:16:37.731Z,93.30
2022-08-10T23:19:35.596Z,93.50
2022-08-10T23:22:07.337Z,93.50
2022-08-10T23:24:41.818Z,93.50
2022-08-10T23:27:39.014Z,93.60
2022-08-10T23:30:04.076Z,93.60
2022-08-10T23:32:40.798Z,93.70
2022-08-10T23:36:31.003Z,93.80
2022-08-10T23:38:03.208Z,93.90
2022-08-10T23:40:30.672Z,94.00
2022-08-10T23:42:58.490Z,94.00
2022-08-10T23:45:52.267Z,94.10
2022-08-10T23:48:20.456Z,94.20
2022-08-10T23:50:59.517Z,94.20
2022-08-10T23:53:33.881Z,94.30
2022-08-10T23:56:06.801Z,94.40
2022-08-10T23:58:53.964Z,94.40
